Time;durP1;ratioP1;P1;durP2;ratioP2;P2;SDS_P1;SDS_P2;PMS_P1;PMS_P2;Temp;Humidity;BMP_temperature;BMP_pressure;BME280_temperature;BME280_humidity;BME280_pressure;Samples;Min_cycle;Max_cycle;Signal;HPM_P1;HPM_P2
2022/12/01 05:02:53;;;;;;;1999.90;999.90;;;;;;;;;;5105178;22;20252;-71
2022/12/01 05:05:38;;;;;;;1999.90;999.90;;;;;;;;;;5065543;28;20625;-70
2022/12/01 05:08:22;;;;;;;1999.90;999.90;;;;;;;;;;5068562;28;20754;-70
2022/12/01 05:11:07;;;;;;;1999.90;999.90;;;;;;;;;;5064237;28;20249;-70
2022/12/01 05:13:52;;;;;;;1999.90;999.90;;;;;;;;;;5065000;28;20219;-70
2022/12/01 05:16:37;;;;;;;1999.90;999.90;;;;;;;;;;5058437;28;20238;-70
2022/12/01 05:22:26;;;;;;;1999.90;999.90;;;;;;;;;;5065774;28;20291;-71
2022/12/01 05:25:10;;;;;;;1999.90;999.90;;;;;;;;;;5073064;28;20726;-70
2022/12/01 05:27:55;;;;;;;1999.90;999.90;;;;;;;;;;5062938;28;20229;-72
2022/12/01 05:30:40;;;;;;;1999.90;999.90;;;;;;;;;;5057709;28;20230;-70
2022/12/01 05:33:26;;;;;;;1999.90;999.90;;;;;;;;;;5068585;28;20790;-71
2022/12/01 05:36:12;;;;;;;1999.90;999.90;;;;;;;;;;5052157;28;20342;-70
2022/12/01 05:38:57;;;;;;;1999.90;999.90;;;;;;;;;;5052389;28;20614;-71
2022/12/01 05:41:42;;;;;;;1999.90;999.90;;;;;;;;;;5066581;28;20735;-70
2022/12/01 05:44:26;;;;;;;1999.90;999.90;;;;;;;;;;5055620;28;20222;-71
2022/12/01 05:47:11;;;;;;;1999.90;999.90;;;;;;;;;;5055522;28;20412;-70
2022/12/01 05:49:56;;;;;;;1999.90;999.90;;;;;;;;;;5051961;28;20567;-70
2022/12/01 05:52:42;;;;;;;1999.90;999.90;;;;;;;;;;5052223;28;20776;-70
2022/12/01 05:55:27;;;;;;;1999.90;999.90;;;;;;;;;;5055183;28;20726;-70
2022/12/01 05:58:12;;;;;;;1999.90;999.90;;;;;;;;;;5066547;28;20225;-70
2022/12/01 06:00:57;;;;;;;1999.90;999.90;;;;;;;;;;5071525;28;20241;-70
2022/12/01 06:03:42;;;;;;;1999.90;999.90;;;;;;;;;;5053717;28;20706;-69
2022/12/01 06:06:27;;;;;;;1999.90;999.90;;;;;;;;;;5070031;28;20419;-70
2022/12/01 06:09:13;;;;;;;1999.90;999.90;;;;;;;;;;5070294;28;20328;-71
2022/12/01 06:11:58;;;;;;;1999.90;999.90;;;;;;;;;;5063354;28;20233;-69
2022/12/01 06:14:43;;;;;;;1999.90;999.90;;;;;;;;;;5052310;28;20225;-69
2022/12/01 06:17:28;;;;;;;1999.90;999.90;;;;;;;;;;5052580;28;20214;-69
2022/12/01 06:20:13;;;;;;;1999.90;999.90;;;;;;;;;;5052741;28;20217;-70
2022/12/01 06:22:58;;;;;;;1999.90;999.90;;;;;;;;;;5052908;28;20205;-70
2022/12/01 06:25:45;;;;;;;1999.90;999.90;;;;;;;;;;5052142;28;20225;-70
2022/12/01 06:28:30;;;;;;;1999.90;999.90;;;;;;;;;;5062637;28;20792;-70
2022/12/01 06:31:14;;;;;;;1999.90;999.90;;;;;;;;;;5072046;28;20230;-70
2022/12/01 06:34:00;;;;;;;1999.90;999.90;;;;;;;;;;5071908;28;20248;-70
2022/12/01 06:36:45;;;;;;;1999.90;999.90;;;;;;;;;;5072166;28;20221;-70
2022/12/01 06:39:29;;;;;;;1999.90;999.90;;;;;;;;;;5072048;28;20209;-70
2022/12/01 06:42:16;;;;;;;1999.90;999.90;;;;;;;;;;5071991;28;20722;-70
2022/12/01 06:45:01;;;;;;;1999.90;999.90;;;;;;;;;;5071567;28;20770;-70
2022/12/01 06:47:46;;;;;;;1999.90;999.90;;;;;;;;;;5072077;28;20313;-70
2022/12/01 06:50:31;;;;;;;1999.90;999.90;;;;;;;;;;5072159;28;20572;-70
2022/12/01 06:53:16;;;;;;;1999.90;999.90;;;;;;;;;;5071957;28;20201;-70
2022/12/01 06:56:01;;;;;;;1999.90;999.90;;;;;;;;;;5071558;28;20721;-70
2022/12/01 06:58:48;;;;;;;1999.90;999.90;;;;;;;;;;5071958;28;20248;-70
2022/12/01 07:01:33;;;;;;;1999.90;999.90;;;;;;;;;;5071664;28;20235;-70
2022/12/01 07:04:18;;;;;;;1999.90;999.90;;;;;;;;;;5067269;28;20205;-70
2022/12/01 07:07:04;;;;;;;1999.90;999.90;;;;;;;;;;5051853;28;20225;-70
2022/12/01 07:09:48;;;;;;;1999.90;999.90;;;;;;;;;;5055258;28;20764;-70
2022/12/01 07:12:33;;;;;;;1999.90;999.90;;;;;;;;;;5055888;28;20252;-70
2022/12/01 07:15:20;;;;;;;1999.90;999.90;;;;;;;;;;5055710;28;20739;-70
2022/12/01 07:18:05;;;;;;;1999.90;999.90;;;;;;;;;;5056065;28;20295;-71
2022/12/01 07:20:50;;;;;;;1999.90;999.90;;;;;;;;;;5055904;28;20240;-71
2022/12/01 07:23:34;;;;;;;1999.90;999.90;;;;;;;;;;5055793;28;20336;-69
2022/12/01 07:26:19;;;;;;;1999.90;999.90;;;;;;;;;;5055053;28;20287;-70
2022/12/01 07:29:05;;;;;;;1999.90;999.90;;;;;;;;;;5055434;28;20213;-70
2022/12/01 07:31:51;;;;;;;1999.90;999.90;;;;;;;;;;5054270;28;20408;-70
2022/12/01 07:34:36;;;;;;;1999.90;999.90;;;;;;;;;;5054859;28;20316;-70
2022/12/01 07:37:21;;;;;;;1999.90;999.90;;;;;;;;;;5074900;28;20257;-71
2022/12/01 07:40:07;;;;;;;1999.90;999.90;;;;;;;;;;5075338;28;20285;-70
2022/12/01 07:42:52;;;;;;;1999.90;999.90;;;;;;;;;;5075355;28;20202;-70
2022/12/01 07:45:36;;;;;;;1999.90;999.90;;;;;;;;;;5075012;28;20691;-70
2022/12/01 07:48:23;;;;;;;1999.90;999.90;;;;;;;;;;5075527;28;20218;-70
2022/12/01 07:51:10;;;;;;;1999.90;999.90;;;;;;;;;;5075105;28;20728;-70
2022/12/01 07:53:55;;;;;;;1999.90;999.90;;;;;;;;;;5075054;28;20202;-70
2022/12/01 07:56:39;;;;;;;1999.90;999.90;;;;;;;;;;5074680;28;20357;-70
2022/12/01 07:59:24;;;;;;;1999.90;999.90;;;;;;;;;;5075027;28;20205;-70
2022/12/01 08:02:09;;;;;;;1999.90;999.90;;;;;;;;;;5074783;28;20296;-70
2022/12/01 08:04:56;;;;;;;1999.90;999.90;;;;;;;;;;5074729;28;20695;-70
2022/12/01 08:07:40;;;;;;;1999.90;999.90;;;;;;;;;;5075013;28;20207;-70
2022/12/01 08:10:25;;;;;;;1999.90;999.90;;;;;;;;;;5074492;28;20707;-70
2022/12/01 08:13:10;;;;;;;1999.90;999.90;;;;;;;;;;5074790;28;20278;-70
2022/12/01 08:15:55;;;;;;;1999.90;999.90;;;;;;;;;;5074230;28;20213;-70
2022/12/01 08:18:41;;;;;;;1999.90;999.90;;;;;;;;;;5074121;28;20293;-70
2022/12/01 08:21:27;;;;;;;1999.90;999.90;;;;;;;;;;5074392;28;20519;-70
2022/12/01 08:24:12;;;;;;;1999.90;999.90;;;;;;;;;;5074190;28;20201;-70
2022/12/01 08:26:57;;;;;;;1999.90;999.90;;;;;;;;;;5074479;28;20694;-70
2022/12/01 08:29:41;;;;;;;1999.90;999.90;;;;;;;;;;5073725;28;20538;-70
2022/12/01 08:32:28;;;;;;;1999.90;999.90;;;;;;;;;;5074444;28;20226;-70
2022/12/01 08:35:14;;;;;;;1999.90;999.90;;;;;;;;;;5073824;28;20727;-70
2022/12/01 08:38:00;;;;;;;1999.90;999.90;;;;;;;;;;5074421;28;20206;-70
2022/12/01 08:40:45;;;;;;;1999.90;999.90;;;;;;;;;;5074275;28;20224;-70
2022/12/01 08:43:30;;;;;;;1999.90;999.90;;;;;;;;;;5074267;28;20244;-71
2022/12/01 08:46:15;;;;;;;1999.90;999.90;;;;;;;;;;5073862;28;20192;-70
2022/12/01 08:49:00;;;;;;;1999.90;999.90;;;;;;;;;;5074204;28;20580;-70
2022/12/01 08:51:45;;;;;;;1999.90;999.90;;;;;;;;;;5072994;28;20431;-70
2022/12/01 08:54:31;;;;;;;1999.90;999.90;;;;;;;;;;5073868;28;20197;-71
2022/12/01 08:57:17;;;;;;;1999.90;999.90;;;;;;;;;;5053339;28;20668;-71
2022/12/01 09:00:02;;;;;;;1999.90;999.90;;;;;;;;;;5056098;28;20419;-70
2022/12/01 09:02:47;;;;;;;1999.90;999.90;;;;;;;;;;5053833;28;20564;-70
2022/12/01 09:05:32;;;;;;;1999.90;999.90;;;;;;;;;;5053187;28;20203;-70
2022/12/01 09:08:33;;;;;;;1999.90;999.90;;;;;;;;;;5053563;28;20207;-70
2022/12/01 09:11:19;;;;;;;1999.90;999.90;;;;;;;;;;5071902;28;20356;-70
2022/12/01 09:14:04;;;;;;;1999.90;999.90;;;;;;;;;;5072446;28;20206;-72
2022/12/01 09:16:50;;;;;;;1999.90;999.90;;;;;;;;;;5053435;28;20702;-71
2022/12/01 09:19:34;;;;;;;1999.90;999.90;;;;;;;;;;5052671;28;20216;-69
2022/12/01 09:22:19;;;;;;;1999.90;999.90;;;;;;;;;;5068110;28;20254;-70
2022/12/01 09:25:07;;;;;;;1999.90;999.90;;;;;;;;;;5066965;28;20213;-70
2022/12/01 09:27:53;;;;;;;1999.90;999.90;;;;;;;;;;5072906;28;20208;-71
2022/12/01 09:30:37;;;;;;;1999.90;999.90;;;;;;;;;;5065600;28;20257;-71
2022/12/01 09:33:22;;;;;;;1999.90;999.90;;;;;;;;;;5072685;28;20215;-71
2022/12/01 09:36:08;;;;;;;1999.90;999.90;;;;;;;;;;5065185;28;20734;-71
2022/12/01 09:38:53;;;;;;;1999.90;999.90;;;;;;;;;;5071019;28;20643;-71
2022/12/01 09:41:40;;;;;;;1999.90;999.90;;;;;;;;;;5077375;28;20237;-70
2022/12/01 09:44:31;;;;;;;1999.90;999.90;;;;;;;;;;5069181;28;20338;-70
2022/12/01 09:47:20;;;;;;;1999.90;999.90;;;;;;;;;;5076565;28;20205;-71
2022/12/01 09:50:06;;;;;;;1999.90;999.90;;;;;;;;;;5069514;28;20220;-69
2022/12/01 09:52:53;;;;;;;1999.90;999.90;;;;;;;;;;5077972;28;20217;-70
2022/12/01 09:55:39;;;;;;;1999.90;999.90;;;;;;;;;;5076231;28;20217;-70
2022/12/01 09:58:25;;;;;;;1999.90;999.90;;;;;;;;;;5084176;28;20640;-70
2022/12/01 10:01:14;;;;;;;1999.90;999.90;;;;;;;;;;5081085;28;20242;-70
2022/12/01 10:04:02;;;;;;;1999.90;999.90;;;;;;;;;;5068799;28;20770;-70
2022/12/01 10:06:50;;;;;;;1999.90;999.90;;;;;;;;;;5060466;28;20206;-70
2022/12/01 10:09:36;;;;;;;1999.90;999.90;;;;;;;;;;5068303;28;20640;-71
2022/12/01 10:12:23;;;;;;;1999.90;999.90;;;;;;;;;;5072080;28;20228;-70
2022/12/01 10:15:15;;;;;;;1999.90;999.90;;;;;;;;;;5064789;28;20308;-70
2022/12/01 10:18:07;;;;;;;1999.90;999.90;;;;;;;;;;5071881;28;20203;-71
2022/12/01 10:20:55;;;;;;;1999.90;999.90;;;;;;;;;;5067061;28;20830;-71
2022/12/01 10:23:52;;;;;;;1999.90;999.90;;;;;;;;;;5065618;28;20284;-71
2022/12/01 10:26:40;;;;;;;1999.90;999.90;;;;;;;;;;5064917;28;20207;-70
2022/12/01 10:29:28;;;;;;;1999.90;999.90;;;;;;;;;;5066057;28;20257;-70
2022/12/01 10:32:14;;;;;;;1999.90;999.90;;;;;;;;;;5071377;28;20232;-70
2022/12/01 10:35:01;;;;;;;1999.90;999.90;;;;;;;;;;5069349;28;20575;-70
2022/12/01 10:37:46;;;;;;;1999.90;999.90;;;;;;;;;;5068387;28;20272;-70
2022/12/01 10:40:34;;;;;;;1999.90;999.90;;;;;;;;;;5061838;28;20211;-71
2022/12/01 10:43:24;;;;;;;1999.90;999.90;;;;;;;;;;5063401;28;21841;-70
2022/12/01 10:46:14;;;;;;;1999.90;999.90;;;;;;;;;;5066327;28;20208;-70
2022/12/01 10:49:00;;;;;;;1999.90;999.90;;;;;;;;;;5065657;28;20300;-71
2022/12/01 10:51:47;;;;;;;1999.90;999.90;;;;;;;;;;5071159;28;20230;-70
2022/12/01 10:54:34;;;;;;;1999.90;999.90;;;;;;;;;;5065323;28;20725;-71
2022/12/01 10:57:19;;;;;;;1999.90;999.90;;;;;;;;;;5066350;28;20257;-70
2022/12/01 11:00:05;;;;;;;1999.90;999.90;;;;;;;;;;5068327;28;20213;-71
2022/12/01 11:02:51;;;;;;;1999.90;999.90;;;;;;;;;;5063557;28;20456;-71
2022/12/01 11:05:38;;;;;;;1999.90;999.90;;;;;;;;;;5061403;28;20296;-71
2022/12/01 11:08:28;;;;;;;1999.90;999.90;;;;;;;;;;5065248;28;20695;-71
2022/12/01 11:11:23;;;;;;;1999.90;999.90;;;;;;;;;;5058878;28;20239;-71
2022/12/01 11:14:16;;;;;;;1999.90;999.90;;;;;;;;;;5053281;28;20208;-70
2022/12/01 11:17:14;;;;;;;1999.90;999.90;;;;;;;;;;5069072;28;20233;-71
2022/12/01 11:19:59;;;;;;;1999.90;999.90;;;;;;;;;;5070970;28;20236;-70
2022/12/01 11:22:43;;;;;;;1999.90;999.90;;;;;;;;;;5068024;28;20319;-70
2022/12/01 11:25:30;;;;;;;1999.90;999.90;;;;;;;;;;5062438;28;20708;-70
2022/12/01 11:28:19;;;;;;;1999.90;999.90;;;;;;;;;;5069025;28;20292;-70
2022/12/01 11:31:05;;;;;;;1999.90;999.90;;;;;;;;;;5070851;28;20233;-71
2022/12/01 11:33:51;;;;;;;1999.90;999.90;;;;;;;;;;5067377;28;20443;-70
2022/12/01 11:36:38;;;;;;;1999.90;999.90;;;;;;;;;;5050124;28;20833;-71
2022/12/01 11:39:25;;;;;;;1999.90;999.90;;;;;;;;;;5070659;28;20249;-71
2022/12/01 11:42:17;;;;;;;1999.90;999.90;;;;;;;;;;5068100;28;20893;-70
2022/12/01 11:45:06;;;;;;;1999.90;999.90;;;;;;;;;;5059520;28;20695;-70
2022/12/01 11:48:05;;;;;;;1999.90;999.90;;;;;;;;;;5068494;28;20221;-71
2022/12/01 11:51:00;;;;;;;1999.90;999.90;;;;;;;;;;5068810;28;20220;-71
2022/12/01 11:53:45;;;;;;;1999.90;999.90;;;;;;;;;;5066259;28;20257;-70
2022/12/01 11:56:31;;;;;;;1999.90;999.90;;;;;;;;;;5054058;28;20303;-71
2022/12/01 11:59:21;;;;;;;1999.90;999.90;;;;;;;;;;5071110;28;20210;-71
2022/12/01 12:02:13;;;;;;;1999.90;999.90;;;;;;;;;;5069087;28;20369;-71
2022/12/01 12:05:06;;;;;;;1999.90;999.90;;;;;;;;;;5066689;28;20271;-71
2022/12/01 12:07:57;;;;;;;1999.90;999.90;;;;;;;;;;5072925;28;20762;-71
2022/12/01 12:10:47;;;;;;;1999.90;999.90;;;;;;;;;;5075908;28;20771;-71
2022/12/01 12:13:40;;;;;;;1999.90;999.90;;;;;;;;;;5076217;28;21050;-71
2022/12/01 12:16:29;;;;;;;1999.90;999.90;;;;;;;;;;5076563;28;20244;-72
2022/12/01 12:19:22;;;;;;;1999.90;999.90;;;;;;;;;;5077775;28;20210;-71
2022/12/01 12:22:11;;;;;;;1999.90;999.90;;;;;;;;;;5071798;28;20235;-71
2022/12/01 12:25:02;;;;;;;1999.90;999.90;;;;;;;;;;5066506;28;20234;-71
2022/12/01 12:27:52;;;;;;;1999.90;999.90;;;;;;;;;;5063545;28;20214;-70
2022/12/01 12:30:38;;;;;;;1999.90;999.90;;;;;;;;;;5066871;28;20427;-70
2022/12/01 12:33:30;;;;;;;1999.90;999.90;;;;;;;;;;5073890;28;20768;-71
2022/12/01 12:36:19;;;;;;;1999.90;999.90;;;;;;;;;;5065823;28;20327;-71
2022/12/01 12:39:11;;;;;;;1999.90;999.90;;;;;;;;;;5073934;28;20255;-70
2022/12/01 12:41:57;;;;;;;1999.90;999.90;;;;;;;;;;5071507;28;20221;-70
2022/12/01 12:44:48;;;;;;;1999.90;999.90;;;;;;;;;;5054450;28;20215;-71
2022/12/01 12:47:40;;;;;;;1999.90;999.90;;;;;;;;;;5059940;28;20600;-71
2022/12/01 12:50:31;;;;;;;1999.90;999.90;;;;;;;;;;5069021;28;20254;-70
2022/12/01 12:53:19;;;;;;;1999.90;999.90;;;;;;;;;;5066257;28;20227;-72
2022/12/01 12:56:05;;;;;;;1999.90;999.90;;;;;;;;;;5067649;28;20586;-69
2022/12/01 12:58:54;;;;;;;1999.90;999.90;;;;;;;;;;5069032;28;20692;-71
2022/12/01 13:01:41;;;;;;;1999.90;999.90;;;;;;;;;;5071895;28;20238;-70
2022/12/01 13:04:32;;;;;;;1999.90;999.90;;;;;;;;;;5066631;28;20276;-70
2022/12/01 13:07:25;;;;;;;1999.90;999.90;;;;;;;;;;5071995;28;20203;-71
2022/12/01 13:10:14;;;;;;;1999.90;999.90;;;;;;;;;;5067371;28;20590;-70
2022/12/01 13:13:03;;;;;;;1999.90;999.90;;;;;;;;;;5065282;28;20688;-70
2022/12/01 13:15:48;;;;;;;1999.90;999.90;;;;;;;;;;5060733;28;20312;-70
2022/12/01 13:18:35;;;;;;;1999.90;999.90;;;;;;;;;;5066203;28;20206;-70
2022/12/01 13:21:21;;;;;;;1999.90;999.90;;;;;;;;;;5065197;28;20227;-70
2022/12/01 13:24:10;;;;;;;1999.90;999.90;;;;;;;;;;5069110;28;20214;-71
2022/12/01 13:26:57;;;;;;;1999.90;999.90;;;;;;;;;;5069280;28;20333;-71
2022/12/01 13:29:45;;;;;;;1999.90;999.90;;;;;;;;;;5059145;28;20220;-71
2022/12/01 13:32:32;;;;;;;1999.90;999.90;;;;;;;;;;5063695;28;20689;-70
2022/12/01 13:35:25;;;;;;;1999.90;999.90;;;;;;;;;;5069373;28;20283;-70
2022/12/01 13:38:20;;;;;;;1999.90;999.90;;;;;;;;;;5071452;28;20235;-71
2022/12/01 13:41:19;;;;;;;1999.90;999.90;;;;;;;;;;5068218;28;20236;-70
2022/12/01 13:44:07;;;;;;;1999.90;999.90;;;;;;;;;;5066211;28;20213;-69
2022/12/01 13:46:52;;;;;;;1999.90;999.90;;;;;;;;;;5068972;28;20220;-70
2022/12/01 13:49:40;;;;;;;1999.90;999.90;;;;;;;;;;5063029;28;20217;-70
2022/12/01 13:52:30;;;;;;;1999.90;999.90;;;;;;;;;;5069694;28;20947;-69
2022/12/01 13:55:28;;;;;;;1999.90;999.90;;;;;;;;;;5070798;28;20584;-70
2022/12/01 13:58:41;;;;;;;1999.90;999.90;;;;;;;;;;5063409;28;20222;-70
2022/12/01 14:01:45;;;;;;;1999.90;999.90;;;;;;;;;;5067640;28;20241;-70
2022/12/01 14:04:31;;;;;;;1999.90;999.90;;;;;;;;;;5061549;28;20321;-70
2022/12/01 14:07:21;;;;;;;1999.90;999.90;;;;;;;;;;5072310;28;20203;-70
2022/12/01 14:10:27;;;;;;;1999.90;999.90;;;;;;;;;;5068367;28;20222;-70
2022/12/01 14:13:17;;;;;;;1999.90;999.90;;;;;;;;;;5067016;28;20431;-71
2022/12/01 14:16:04;;;;;;;1999.90;999.90;;;;;;;;;;5066530;28;20620;-71
2022/12/01 14:18:51;;;;;;;1999.90;999.90;;;;;;;;;;5059170;28;20768;-72
2022/12/01 14:21:40;;;;;;;1999.90;999.90;;;;;;;;;;5066735;28;20273;-70
2022/12/01 14:24:30;;;;;;;1999.90;999.90;;;;;;;;;;5059202;28;20211;-70
2022/12/01 14:27:15;;;;;;;1999.90;999.90;;;;;;;;;;5064652;28;20285;-71
2022/12/01 14:30:15;;;;;;;1999.90;999.90;;;;;;;;;;5069750;28;20279;-71
2022/12/01 14:33:15;;;;;;;1999.90;999.90;;;;;;;;;;5063051;28;20215;-70
2022/12/01 14:36:03;;;;;;;1999.90;999.90;;;;;;;;;;5062533;28;20319;-72
2022/12/01 14:38:49;;;;;;;1999.90;999.90;;;;;;;;;;5071841;28;20315;-70
2022/12/01 14:41:42;;;;;;;1999.90;999.90;;;;;;;;;;5053561;28;20235;-71
2022/12/01 14:44:30;;;;;;;1999.90;999.90;;;;;;;;;;5066049;28;20214;-70
2022/12/01 14:47:16;;;;;;;1999.90;999.90;;;;;;;;;;5070230;28;20288;-71
2022/12/01 14:50:04;;;;;;;1999.90;999.90;;;;;;;;;;5062431;28;20216;-70
2022/12/01 14:52:52;;;;;;;1999.90;999.90;;;;;;;;;;5067052;28;20310;-70
2022/12/01 14:55:40;;;;;;;1999.90;999.90;;;;;;;;;;5051979;28;20254;-71
2022/12/01 14:58:26;;;;;;;1999.90;999.90;;;;;;;;;;5063082;28;20211;-71
2022/12/01 15:01:12;;;;;;;1999.90;999.90;;;;;;;;;;5069196;28;20744;-70
2022/12/01 15:03:58;;;;;;;1999.90;999.90;;;;;;;;;;5071512;28;20212;-71
2022/12/01 15:06:43;;;;;;;1999.90;999.90;;;;;;;;;;5069706;28;20214;-70
2022/12/01 15:09:30;;;;;;;1999.90;999.90;;;;;;;;;;5062302;28;20218;-71
2022/12/01 15:12:25;;;;;;;1999.90;999.90;;;;;;;;;;5061263;28;20229;-70
2022/12/01 15:15:14;;;;;;;1999.90;999.90;;;;;;;;;;5064516;28;20252;-70
2022/12/01 15:18:00;;;;;;;1999.90;999.90;;;;;;;;;;5063567;28;20602;-71
2022/12/01 15:20:47;;;;;;;1999.90;999.90;;;;;;;;;;5068961;28;20223;-71
2022/12/01 15:23:32;;;;;;;1999.90;999.90;;;;;;;;;;5070713;28;20768;-70
2022/12/01 15:26:18;;;;;;;1999.90;999.90;;;;;;;;;;5064233;28;20582;-70
2022/12/01 15:29:05;;;;;;;1999.90;999.90;;;;;;;;;;5068172;28;20217;-70
2022/12/01 15:31:53;;;;;;;1999.90;999.90;;;;;;;;;;5075129;28;20229;-69
2022/12/01 15:34:40;;;;;;;1999.90;999.90;;;;;;;;;;5064826;28;20430;-69
2022/12/01 15:37:27;;;;;;;1999.90;999.90;;;;;;;;;;5067570;28;20214;-69
2022/12/01 15:40:15;;;;;;;1999.90;999.90;;;;;;;;;;5072260;28;20262;-70
2022/12/01 15:43:02;;;;;;;1999.90;999.90;;;;;;;;;;5055433;28;20229;-70
2022/12/01 15:45:49;;;;;;;1999.90;999.90;;;;;;;;;;5055543;28;20216;-71
2022/12/01 15:48:35;;;;;;;1999.90;999.90;;;;;;;;;;5055382;28;20218;-72
2022/12/01 15:51:25;;;;;;;1999.90;999.90;;;;;;;;;;5070142;28;20237;-72
2022/12/01 15:54:16;;;;;;;1999.90;999.90;;;;;;;;;;5073729;28;20666;-72
2022/12/01 15:57:02;;;;;;;1999.90;999.90;;;;;;;;;;5075649;28;20211;-70
2022/12/01 15:59:54;;;;;;;1999.90;999.90;;;;;;;;;;5070932;28;20326;-70
2022/12/01 16:02:39;;;;;;;1999.90;999.90;;;;;;;;;;5075205;28;20308;-69
2022/12/01 16:05:25;;;;;;;1999.90;999.90;;;;;;;;;;5066067;28;20218;-69
2022/12/01 16:08:14;;;;;;;1999.90;999.90;;;;;;;;;;5065774;28;20693;-70
2022/12/01 16:11:09;;;;;;;1999.90;999.90;;;;;;;;;;5062392;28;20357;-69
2022/12/01 16:13:59;;;;;;;1999.90;999.90;;;;;;;;;;5058694;28;20220;-70
2022/12/01 16:16:46;;;;;;;1999.90;999.90;;;;;;;;;;5064124;28;20330;-68
2022/12/01 16:19:32;;;;;;;1999.90;999.90;;;;;;;;;;5069266;28;20201;-70
2022/12/01 16:22:18;;;;;;;1999.90;999.90;;;;;;;;;;5072351;28;20230;-70
2022/12/01 16:25:04;;;;;;;1999.90;999.90;;;;;;;;;;5072120;28;20821;-70
2022/12/01 16:27:50;;;;;;;1999.90;999.90;;;;;;;;;;5072087;28;20213;-71
2022/12/01 16:30:36;;;;;;;1999.90;999.90;;;;;;;;;;5054143;28;20586;-71
2022/12/01 16:33:23;;;;;;;1999.90;999.90;;;;;;;;;;5069703;28;20705;-72
2022/12/01 16:36:08;;;;;;;1999.90;999.90;;;;;;;;;;5053533;28;20274;-71
2022/12/01 16:38:53;;;;;;;1999.90;999.90;;;;;;;;;;5053932;28;20233;-71
2022/12/01 16:41:42;;;;;;;1999.90;999.90;;;;;;;;;;5053731;28;20254;-71
2022/12/01 16:44:27;;;;;;;1999.90;999.90;;;;;;;;;;5053857;28;20214;-72
2022/12/01 16:47:14;;;;;;;1999.90;999.90;;;;;;;;;;5053317;28;20907;-71
2022/12/01 16:50:00;;;;;;;1999.90;999.90;;;;;;;;;;5053765;28;20821;-71
2022/12/01 16:52:45;;;;;;;1999.90;999.90;;;;;;;;;;5053713;28;20234;-70
2022/12/01 16:55:34;;;;;;;1999.90;999.90;;;;;;;;;;5053688;28;20585;-72
2022/12/01 16:58:19;;;;;;;1999.90;999.90;;;;;;;;;;5055756;28;20636;-71
2022/12/01 17:01:05;;;;;;;1999.90;999.90;;;;;;;;;;5070684;28;20711;-72
2022/12/01 17:03:50;;;;;;;1999.90;999.90;;;;;;;;;;5073702;28;20222;-72
2022/12/01 17:06:37;;;;;;;1999.90;999.90;;;;;;;;;;5091327;28;20226;-74
2022/12/01 17:09:22;;;;;;;1999.90;999.90;;;;;;;;;;5094282;28;20206;-71
2022/12/01 17:12:07;;;;;;;1999.90;999.90;;;;;;;;;;5093927;28;20693;-71
2022/12/01 17:14:52;;;;;;;1999.90;999.90;;;;;;;;;;5093542;28;20283;-71
2022/12/01 17:17:37;;;;;;;1999.90;999.90;;;;;;;;;;5079987;28;20217;-71
2022/12/01 17:20:22;;;;;;;1999.90;999.90;;;;;;;;;;5073476;28;20189;-71
2022/12/01 17:23:09;;;;;;;1999.90;999.90;;;;;;;;;;5073291;28;20284;-71
2022/12/01 17:25:54;;;;;;;1999.90;999.90;;;;;;;;;;5073137;28;20206;-72
2022/12/01 17:28:39;;;;;;;1999.90;999.90;;;;;;;;;;5073043;28;20210;-70
2022/12/01 17:31:24;;;;;;;1999.90;999.90;;;;;;;;;;5073256;28;20347;-70
2022/12/01 17:34:09;;;;;;;1999.90;999.90;;;;;;;;;;5073098;28;20233;-70
2022/12/01 17:36:54;;;;;;;1999.90;999.90;;;;;;;;;;5072767;28;20210;-71
2022/12/01 17:39:40;;;;;;;1999.90;999.90;;;;;;;;;;5072856;28;20569;-72
2022/12/01 17:42:25;;;;;;;1999.90;999.90;;;;;;;;;;5072134;28;20230;-73
2022/12/01 17:45:10;;;;;;;1999.90;999.90;;;;;;;;;;5078455;28;20278;-73
2022/12/01 17:47:54;;;;;;;1999.90;999.90;;;;;;;;;;5076889;28;20488;-72
2022/12/01 17:50:39;;;;;;;1999.90;999.90;;;;;;;;;;5077110;28;20217;-73
2022/12/01 17:53:24;;;;;;;1999.90;999.90;;;;;;;;;;5077378;28;20700;-73
2022/12/01 17:56:12;;;;;;;1999.90;999.90;;;;;;;;;;5075422;28;20226;-72
2022/12/01 17:58:57;;;;;;;1999.90;999.90;;;;;;;;;;5075849;28;20244;-70
2022/12/01 18:01:42;;;;;;;1999.90;999.90;;;;;;;;;;5084485;28;20231;-72
2022/12/01 18:04:27;;;;;;;1999.90;999.90;;;;;;;;;;5071018;28;20217;-72
2022/12/01 18:07:11;;;;;;;1999.90;999.90;;;;;;;;;;5076409;28;20211;-72
2022/12/01 18:09:56;;;;;;;1999.90;999.90;;;;;;;;;;5076322;28;20807;-70
2022/12/01 18:12:42;;;;;;;1999.90;999.90;;;;;;;;;;5086083;28;20786;-71
2022/12/01 18:15:27;;;;;;;1999.90;999.90;;;;;;;;;;5078773;28;20222;-72
2022/12/01 18:18:12;;;;;;;1999.90;999.90;;;;;;;;;;5077950;28;20268;-72
2022/12/01 18:20:57;;;;;;;1999.90;999.90;;;;;;;;;;5071777;28;20257;-73
2022/12/01 18:23:42;;;;;;;1999.90;999.90;;;;;;;;;;5074851;28;20210;-71
2022/12/01 18:26:28;;;;;;;1999.90;999.90;;;;;;;;;;5070858;28;20263;-72
2022/12/01 18:29:17;;;;;;;1999.90;999.90;;;;;;;;;;5075048;28;20299;-70
2022/12/01 18:32:02;;;;;;;1999.90;999.90;;;;;;;;;;5079977;28;20274;-71
2022/12/01 18:34:46;;;;;;;1999.90;999.90;;;;;;;;;;5076067;28;20213;-72
2022/12/01 18:37:31;;;;;;;1999.90;999.90;;;;;;;;;;5079828;28;20197;-72
2022/12/01 18:40:16;;;;;;;1999.90;999.90;;;;;;;;;;5069459;28;20209;-71
2022/12/01 18:43:01;;;;;;;1999.90;999.90;;;;;;;;;;5063344;28;20212;-72
2022/12/01 18:45:47;;;;;;;1999.90;999.90;;;;;;;;;;5070518;28;20321;-72
2022/12/01 18:48:32;;;;;;;1999.90;999.90;;;;;;;;;;5071067;28;20237;-71
2022/12/01 18:51:18;;;;;;;1999.90;999.90;;;;;;;;;;5077402;28;20236;-72
2022/12/01 18:54:04;;;;;;;1999.90;999.90;;;;;;;;;;5071901;28;20678;-72
2022/12/01 18:56:51;;;;;;;1999.90;999.90;;;;;;;;;;5069686;28;20713;-72
2022/12/01 18:59:35;;;;;;;1999.90;999.90;;;;;;;;;;5063521;28;20238;-72
2022/12/01 19:02:23;;;;;;;1999.90;999.90;;;;;;;;;;5065578;28;20339;-72
2022/12/01 19:05:08;;;;;;;1999.90;999.90;;;;;;;;;;5078958;28;20209;-71
2022/12/01 19:07:53;;;;;;;1999.90;999.90;;;;;;;;;;5065521;28;20580;-72
2022/12/01 19:10:38;;;;;;;1999.90;999.90;;;;;;;;;;5074726;28;20206;-73
2022/12/01 19:13:23;;;;;;;1999.90;999.90;;;;;;;;;;5069156;28;20294;-71
2022/12/01 19:16:08;;;;;;;1999.90;999.90;;;;;;;;;;5068027;28;20210;-71
2022/12/01 19:18:55;;;;;;;1999.90;999.90;;;;;;;;;;5061958;28;20245;-71
2022/12/01 19:21:40;;;;;;;1999.90;999.90;;;;;;;;;;5062359;28;20233;-72
2022/12/01 19:24:25;;;;;;;1999.90;999.90;;;;;;;;;;5052282;28;20210;-71
2022/12/01 19:27:10;;;;;;;1999.90;999.90;;;;;;;;;;5066973;28;20214;-73
2022/12/01 19:29:55;;;;;;;1999.90;999.90;;;;;;;;;;5071203;28;20210;-72
2022/12/01 19:32:42;;;;;;;1999.90;999.90;;;;;;;;;;5069171;28;20401;-72
2022/12/01 19:35:28;;;;;;;1999.90;999.90;;;;;;;;;;5066068;28;20689;-72
2022/12/01 19:38:13;;;;;;;1999.90;999.90;;;;;;;;;;5066310;28;20709;-71
2022/12/01 19:40:58;;;;;;;1999.90;999.90;;;;;;;;;;5063684;28;20288;-72
2022/12/01 19:43:43;;;;;;;1999.90;999.90;;;;;;;;;;5068177;28;20208;-72
2022/12/01 19:46:28;;;;;;;1999.90;999.90;;;;;;;;;;5064626;28;20708;-71
2022/12/01 19:49:13;;;;;;;1999.90;999.90;;;;;;;;;;5068862;28;20696;-71
2022/12/01 19:51:59;;;;;;;1999.90;999.90;;;;;;;;;;5067645;28;20765;-71
2022/12/01 19:54:44;;;;;;;1999.90;999.90;;;;;;;;;;5059554;28;20225;-71
2022/12/01 19:57:29;;;;;;;1999.90;999.90;;;;;;;;;;5066102;28;20209;-71
2022/12/01 20:00:14;;;;;;;1999.90;999.90;;;;;;;;;;5066049;28;20205;-72
2022/12/01 20:02:59;;;;;;;1999.90;999.90;;;;;;;;;;5070367;28;20229;-72
2022/12/01 20:05:44;;;;;;;1999.90;999.90;;;;;;;;;;5070769;28;20201;-72
2022/12/01 20:08:31;;;;;;;1999.90;999.90;;;;;;;;;;5066108;28;20201;-71
2022/12/01 20:11:16;;;;;;;1999.90;999.90;;;;;;;;;;5065398;28;20356;-71
2022/12/01 20:14:02;;;;;;;1999.90;999.90;;;;;;;;;;5066467;28;20237;-72
2022/12/01 20:16:47;;;;;;;1999.90;999.90;;;;;;;;;;5073966;28;20695;-72
2022/12/01 20:19:32;;;;;;;1999.90;999.90;;;;;;;;;;5067307;28;20222;-71
2022/12/01 20:22:16;;;;;;;1999.90;999.90;;;;;;;;;;5064837;28;20263;-71
2022/12/01 20:25:04;;;;;;;1999.90;999.90;;;;;;;;;;5071091;28;20210;-71
2022/12/01 20:27:49;;;;;;;1999.90;999.90;;;;;;;;;;5074346;28;20694;-71
2022/12/01 20:30:33;;;;;;;1999.90;999.90;;;;;;;;;;5073984;28;20198;-71
2022/12/01 20:33:18;;;;;;;1999.90;999.90;;;;;;;;;;5074500;28;20287;-71
2022/12/01 20:36:04;;;;;;;1999.90;999.90;;;;;;;;;;5073876;28;20292;-71